createdAt,value
2022-09-02T00:03:17.188Z,2.20
2022-09-02T00:08:19.686Z,2.42
2022-09-02T00:13:22.871Z,2.30
2022-09-02T00:18:26.286Z,2.05
2022-09-02T00:23:28.465Z,2.62
2022-09-02T00:28:30.859Z,2.50
2022-09-02T00:33:33.246Z,3.15
2022-09-02T00:38:36.999Z,2.35
2022-09-02T00:43:55.473Z,3.08
2022-09-02T00:49:09.513Z,2.40
2022-09-02T00:54:13.903Z,3.28
2022-09-02T00:59:23.654Z,2.75
2022-09-02T01:04:26.126Z,3.37
2022-09-02T01:09:28.618Z,4.05
2022-09-02T01:14:31.219Z,3.10
2022-09-02T01:19:38.640Z,2.20
2022-09-02T01:24:41.088Z,2.65
2022-09-02T01:29:43.678Z,2.83
2022-09-02T01:34:46.492Z,2.20
2022-09-02T01:39:50.556Z,2.35
2022-09-02T01:44:52.997Z,2.60
2022-09-02T01:49:56.784Z,2.95
2022-09-02T01:54:59.451Z,3.67
2022-09-02T02:00:04.196Z,2.62
2022-09-02T02:05:15.818Z,3.00
2022-09-02T02:10:21.357Z,2.90
2022-09-02T02:20:27.261Z,2.70
2022-09-02T02:25:29.745Z,3.00
2022-09-02T02:30:32.564Z,2.75
2022-09-02T02:35:35.940Z,3.08
2022-09-02T02:40:38.372Z,2.80
2022-09-02T02:50:43.272Z,2.15
2022-09-02T02:55:49.910Z,2.60
2022-09-02T03:00:54.606Z,2.62
2022-09-02T03:05:57.198Z,2.22
2022-09-02T03:11:01.779Z,2.65
2022-09-02T03:16:08.187Z,2.72
2022-09-02T03:21:10.985Z,2.72
2022-09-02T03:26:20.144Z,2.22
2022-09-02T03:31:24.685Z,2.33
2022-09-02T03:36:31.684Z,3.22
2022-09-02T03:41:34.609Z,3.70
2022-09-02T03:46:37.111Z,2.40
2022-09-02T03:51:42.334Z,3.25
2022-09-02T03:56:45.357Z,3.50
2022-09-02T04:01:48.797Z,2.92
2022-09-02T04:06:51.160Z,2.92
2022-09-02T04:11:54.003Z,3.17
2022-09-02T04:17:52.553Z,3.03
2022-09-02T04:23:12.966Z,3.08
2022-09-02T04:28:16.457Z,3.00
2022-09-02T04:33:18.965Z,2.97
2022-09-02T04:43:25.114Z,2.42
2022-09-02T04:48:27.912Z,3.10
2022-09-02T04:53:30.059Z,3.50
2022-09-02T04:58:32.596Z,2.72
2022-09-02T05:03:36.516Z,2.53
2022-09-02T05:08:39.394Z,3.05
2022-09-02T05:13:42.798Z,3.62
2022-09-02T05:18:45.056Z,3.15
2022-09-02T05:23:47.578Z,3.25
2022-09-02T05:28:50.444Z,3.60
2022-09-02T05:33:53.308Z,3.28
2022-09-02T05:38:55.927Z,4.30
2022-09-02T05:44:01.348Z,3.83
2022-09-02T05:49:07.226Z,3.58
2022-09-02T05:54:14.639Z,3.35
2022-09-02T05:59:16.876Z,3.55
2022-09-02T06:04:19.518Z,4.18
2022-09-02T06:09:23.745Z,3.60
2022-09-02T06:14:27.210Z,4.03
2022-09-02T06:19:30.352Z,3.53
2022-09-02T06:24:33.406Z,3.25
2022-09-02T06:29:37.856Z,3.87
2022-09-02T06:34:40.972Z,3.58
2022-09-02T06:39:44.776Z,3.45
2022-09-02T06:44:48.721Z,3.12
2022-09-02T06:49:50.984Z,3.10
2022-09-02T06:54:55.435Z,2.80
2022-09-02T07:00:02.284Z,2.35
2022-09-02T07:05:10.143Z,2.47
2022-09-02T07:10:14.171Z,2.33
2022-09-02T07:15:18.250Z,2.30
2022-09-02T07:20:20.481Z,3.55
2022-09-02T07:25:26.297Z,1.95
2022-09-02T07:30:28.722Z,2.25
2022-09-02T07:35:31.788Z,2.05
2022-09-02T07:40:36.218Z,2.05
2022-09-02T07:45:39.886Z,2.10
2022-09-02T07:50:43.299Z,2.08
2022-09-02T07:55:47.112Z,1.50
2022-09-02T08:00:51.210Z,2.05
2022-09-02T08:05:54.681Z,1.75
2022-09-02T08:10:57.157Z,2.05
2022-09-02T08:15:59.968Z,1.30
2022-09-02T08:21:02.542Z,1.87
2022-09-02T08:26:09.244Z,2.10
2022-09-02T08:31:11.433Z,2.08
2022-09-02T08:41:26.524Z,1.75
2022-09-02T08:46:32.078Z,2.03
2022-09-02T08:51:53.175Z,1.33
2022-09-02T08:56:58.000Z,1.75
2022-09-02T09:02:06.920Z,1.55
2022-09-02T09:07:18.863Z,1.30
2022-09-02T09:12:21.076Z,1.25
2022-09-02T09:17:32.482Z,1.30
2022-09-02T09:22:38.563Z,1.58
2022-09-02T09:27:41.125Z,1.55
2022-09-02T09:32:48.473Z,1.30
2022-09-02T09:37:52.527Z,0.98
2022-09-02T09:43:24.440Z,1.20
2022-09-02T09:48:29.787Z,1.45
2022-09-02T09:53:34.551Z,0.80
2022-09-02T09:58:37.051Z,1.45
2022-09-02T10:03:47.826Z,1.30
2022-09-02T10:08:58.140Z,1.12
2022-09-02T10:14:09.358Z,1.25
2022-09-02T10:19:51.703Z,1.25
2022-09-02T10:25:11.732Z,0.88
2022-09-02T10:30:21.713Z,0.93
2022-09-02T10:35:47.082Z,0.93
2022-09-02T10:41:02.106Z,1.10
2022-09-02T10:46:09.697Z,0.88
2022-09-02T10:51:28.881Z,0.80
2022-09-02T10:56:40.317Z,0.70
2022-09-02T11:02:23.924Z,1.10
2022-09-02T11:07:40.936Z,1.37
2022-09-02T11:13:01.039Z,0.85
2022-09-02T11:18:26.715Z,0.95
2022-09-02T11:24:00.680Z,1.00
2022-09-02T11:29:17.243Z,0.70
2022-09-02T11:34:34.923Z,0.82
2022-09-02T11:40:02.313Z,1.02
2022-09-02T11:45:33.563Z,0.82
2022-09-02T11:50:53.961Z,1.10
2022-09-02T11:56:24.424Z,1.00
2022-09-02T12:01:43.830Z,1.20
2022-09-02T12:07:09.573Z,0.60
2022-09-02T12:12:38.150Z,0.70
2022-09-02T12:18:36.853Z,1.42
2022-09-02T12:23:52.524Z,0.85
2022-09-02T12:29:10.936Z,0.60
2022-09-02T12:34:25.827Z,0.82
2022-09-02T12:39:28.010Z,1.08
2022-09-02T12:44:54.118Z,0.75
2022-09-02T12:50:05.448Z,1.20
2022-09-02T12:55:12.730Z,1.08
2022-09-02T13:00:25.469Z,0.77
2022-09-02T13:06:01.450Z,0.60
2022-09-02T13:11:37.907Z,0.98
2022-09-02T13:16:42.816Z,1.10
2022-09-02T13:22:06.220Z,0.77
2022-09-02T13:27:24.557Z,0.80
2022-09-02T13:32:29.707Z,1.25
2022-09-02T13:37:39.057Z,1.55
2022-09-02T13:42:54.695Z,0.62
2022-09-02T13:47:59.684Z,0.88
2022-09-02T13:58:29.969Z,0.80
2022-09-02T14:03:33.181Z,1.00
2022-09-02T14:08:35.770Z,0.60
2022-09-02T14:13:41.263Z,1.35
2022-09-02T14:19:07.640Z,0.90
2022-09-02T14:24:13.516Z,0.95
2022-09-02T14:29:20.467Z,0.73
2022-09-02T14:34:43.404Z,1.00
2022-09-02T14:40:12.525Z,0.98
2022-09-02T14:45:24.409Z,0.70
2022-09-02T14:50:30.692Z,0.93
2022-09-02T14:55:52.626Z,0.90
2022-09-02T15:01:00.913Z,0.80
2022-09-02T15:06:03.356Z,1.05
2022-09-02T15:11:09.377Z,0.75
2022-09-02T15:16:11.607Z,0.90
2022-09-02T15:21:14.004Z,0.95
2022-09-02T15:26:17.351Z,0.45
2022-09-02T15:31:19.713Z,1.10
2022-09-02T15:36:23.603Z,0.88
2022-09-02T15:41:27.481Z,1.23
2022-09-02T15:46:31.619Z,0.80
2022-09-02T15:51:35.686Z,0.82
2022-09-02T15:56:40.529Z,0.68
2022-09-02T16:01:45.979Z,0.80
2022-09-02T16:06:49.917Z,0.95
2022-09-02T16:11:55.834Z,1.10
2022-09-02T16:16:58.144Z,0.95
2022-09-02T16:22:00.409Z,1.17
2022-09-02T16:27:03.082Z,0.55
2022-09-02T16:32:24.367Z,1.12
2022-09-02T16:37:27.914Z,0.90
2022-09-02T16:42:31.392Z,0.95
2022-09-02T16:47:36.048Z,0.40
2022-09-02T16:52:41.553Z,0.85
2022-09-02T16:57:43.739Z,0.70
2022-09-02T17:02:46.011Z,0.75
2022-09-02T17:07:48.308Z,1.40
2022-09-02T17:12:50.578Z,1.20
2022-09-02T17:17:53.562Z,0.90
2022-09-02T17:22:56.440Z,0.70
2022-09-02T17:27:58.615Z,1.00
2022-09-02T17:38:03.298Z,1.00
2022-09-02T17:43:05.515Z,0.75
2022-09-02T17:53:29.900Z,0.65
2022-09-02T18:03:55.801Z,1.27
2022-09-02T18:09:02.117Z,1.10
2022-09-02T18:14:47.036Z,1.27
2022-09-02T18:20:18.584Z,0.90
2022-09-02T18:25:49.356Z,1.17
2022-09-02T18:31:07.138Z,1.08
2022-09-02T18:36:36.784Z,1.20
2022-09-02T18:42:13.911Z,1.15
2022-09-02T18:47:26.599Z,0.85
2022-09-02T18:52:30.373Z,1.33
2022-09-02T18:57:43.655Z,0.85
2022-09-02T19:03:02.342Z,0.85
2022-09-02T19:08:32.730Z,1.10
2022-09-02T19:14:02.911Z,0.70
2022-09-02T19:19:09.528Z,0.93
2022-09-02T19:24:26.042Z,0.90
2022-09-02T19:29:29.067Z,0.82
2022-09-02T19:34:39.842Z,0.70
2022-09-02T19:39:54.541Z,0.85
2022-09-02T19:45:00.371Z,1.08
2022-09-02T19:50:05.272Z,0.52
2022-09-02T19:55:09.751Z,1.20
2022-09-02T20:00:15.108Z,1.42
2022-09-02T20:05:17.745Z,0.88
2022-09-02T20:10:27.678Z,0.93
2022-09-02T20:15:37.421Z,1.45
2022-09-02T20:20:45.504Z,1.33
2022-09-02T20:26:02.407Z,1.20
2022-09-02T20:31:31.574Z,1.10
2022-09-02T20:37:02.497Z,1.33
2022-09-02T20:42:42.252Z,1.35
2022-09-02T20:48:02.642Z,1.15
2022-09-02T20:53:26.939Z,1.10
2022-09-02T20:59:11.500Z,1.23
2022-09-02T21:04:38.686Z,1.15
2022-09-02T21:10:06.677Z,1.35
2022-09-02T21:15:39.990Z,1.25
2022-09-02T21:20:50.875Z,1.52
2022-09-02T21:25:59.470Z,0.90
2022-09-02T21:31:22.023Z,1.20
2022-09-02T21:36:30.236Z,1.00
2022-09-02T21:42:16.804Z,0.88
2022-09-02T21:47:35.228Z,1.30
2022-09-02T21:52:52.842Z,1.40
2022-09-02T21:58:13.704Z,1.00
2022-09-02T22:03:36.992Z,1.10
2022-09-02T22:08:44.591Z,0.93
2022-09-02T22:13:48.123Z,0.88
2022-09-02T22:19:02.518Z,0.80
2022-09-02T22:24:05.010Z,0.80
2022-09-02T22:29:31.634Z,1.35
2022-09-02T22:34:41.717Z,1.23
2022-09-02T22:39:54.109Z,0.90
2022-09-02T22:45:30.947Z,1.00
2022-09-02T22:50:57.973Z,0.98
2022-09-02T22:56:03.708Z,1.12
2022-09-02T23:01:34.738Z,1.30
2022-09-02T23:06:36.991Z,0.98
2022-09-02T23:12:06.926Z,1.03
2022-09-02T23:17:33.574Z,1.02
2022-09-02T23:22:53.748Z,0.95
2022-09-02T23:28:15.322Z,0.98
2022-09-02T23:33:25.679Z,0.98
2022-09-02T23:39:06.416Z,1.35
2022-09-02T23:44:10.528Z,1.10
2022-09-02T23:49:27.515Z,0.88
2022-09-02T23:54:58.965Z,1.30
